KCLT/CLT METAR and TAF weather

Enter ICAO airport designator
Station Type Date Time Source
KCLT METAR 2018/04/27 00:52 UTC NOAA

KCLT 270052Z 30005KT 10SM -RA FEW026 BKN075 15/14 A2985 RMK AO2 SLP103 P0007 T01500139 $


Station Type Date Time Source
KCLT Decoded METAR 2018/04/27 00:52 UTC NOAA

CHARLOTTE/DOUGLAS INTERNATIONAL , NC, United States (KCLT) 35-13N 80-57W 220M
Apr 26, 2018 - 08:52 PM EDT / 2018.04.27 0052 UTC
Wind: from the WNW (300 degrees) at 6 MPH (5 KT):0
Visibility: 10 mile(s):0
Sky conditions: mostly cloudy
Weather: light rain
Precipitation last hour: 0.07 inches
Temperature: 59.0 F (15.0 C)
Dew Point: 57.0 F (13.9 C)
Relative Humidity: 93%
Pressure (altimeter): 29.85 in. Hg (1010 hPa)
ob: KCLT 270052Z 30005KT 10SM -RA FEW026 BKN075 15/14 A2985 RMK AO2 SLP103 P0007 T01500139
cycle: 1

Station Type Date Time Source
KCLT TAF 2018/04/26 22:12 UTC NOAA

TAF
AMD KCLT 262209Z 2622/2724 31006KT 5SM -RA BR SCT035 OVC070
TEMPO 2622/2701 2SM RA BR OVC035
FM270300 10004KT P6SM -SHRA OVC003
FM270800 24003KT P6SM OVC003 PROB30 2708/2711 4SM -SHRA OVC001
FM271400 26006KT P6SM BKN020


Example: see airport list